Time;durP1;ratioP1;P1;durP2;ratioP2;P2;SDS_P1;SDS_P2;PMS_P1;PMS_P2;Temp;Humidity;BMP_temperature;BMP_pressure;BME280_temperature;BME280_humidity;BME280_pressure;Samples;Min_cycle;Max_cycle;Signal;HPM_P1;HPM_P2
2022/09/28 00:02:03;;;;;;;2.97;1.85;;;9.80;99.90;;;;;;5035041;28;20028;-74
2022/09/28 00:04:29;;;;;;;7.93;2.15;;;9.80;99.90;;;;;;5034106;28;20064;-76
2022/09/28 00:06:54;;;;;;;3.47;1.95;;;9.70;99.90;;;;;;5039298;28;20071;-74
2022/09/28 00:09:20;;;;;;;7.03;2.58;;;9.70;99.90;;;;;;5037788;28;20112;-73
2022/09/28 00:11:46;;;;;;;7.72;2.92;;;9.70;99.90;;;;;;5041539;28;20064;-74
2022/09/28 00:14:12;;;;;;;9.15;2.35;;;9.70;99.90;;;;;;5040965;28;20017;-76
2022/09/28 00:16:43;;;;;;;4.60;1.70;;;9.60;99.90;;;;;;5040205;28;20182;-74
2022/09/28 00:19:10;;;;;;;5.78;1.65;;;9.60;99.90;;;;;;5045958;28;20033;-75
2022/09/28 00:21:38;;;;;;;6.75;2.50;;;9.50;99.90;;;;;;5037046;28;20026;-76
2022/09/28 00:24:11;;;;;;;9.40;2.15;;;9.40;99.90;;;;;;5031029;28;20030;-76
2022/09/28 00:26:55;;;;;;;7.30;2.60;;;9.40;99.90;;;;;;5031599;28;20031;-75
2022/09/28 00:29:30;;;;;;;9.68;2.60;;;9.40;99.90;;;;;;5027798;28;20030;-75
2022/09/28 00:32:00;;;;;;;6.75;2.10;;;9.30;99.90;;;;;;5023703;28;20959;-75
2022/09/28 00:34:34;;;;;;;6.90;2.08;;;9.30;99.90;;;;;;5031019;28;20037;-75
2022/09/28 00:37:02;;;;;;;6.60;2.72;;;9.20;99.90;;;;;;5030383;28;20132;-76
2022/09/28 00:39:30;;;;;;;4.85;1.80;;;9.20;99.90;;;;;;5030762;28;20094;-75
2022/09/28 00:41:56;;;;;;;8.95;3.08;;;9.20;99.90;;;;;;5034654;28;20040;-75
2022/09/28 00:44:24;;;;;;;6.65;2.42;;;9.20;99.90;;;;;;5034683;28;20034;-76
2022/09/28 00:46:57;;;;;;;5.93;2.08;;;9.20;99.90;;;;;;5033660;28;20045;-75
2022/09/28 00:49:50;;;;;;;7.75;1.80;;;9.10;99.90;;;;;;5034436;28;20037;-76
2022/09/28 00:52:39;;;;;;;6.60;2.47;;;9.10;99.90;;;;;;5003366;28;20061;-75
2022/09/28 00:55:09;;;;;;;11.57;2.63;;;9.20;99.90;;;;;;5020541;28;20548;-76
2022/09/28 00:57:36;;;;;;;10.23;2.10;;;9.20;99.90;;;;;;5034165;28;20037;-75
2022/09/28 01:00:04;;;;;;;14.70;2.97;;;9.20;99.90;;;;;;5033927;28;20030;-76
2022/09/28 01:02:30;;;;;;;7.43;2.17;;;9.10;99.90;;;;;;5034361;28;20044;-76
2022/09/28 01:04:57;;;;;;;6.63;2.42;;;9.10;99.90;;;;;;5032743;28;20382;-76
2022/09/28 01:07:23;;;;;;;5.90;2.53;;;9.10;99.90;;;;;;5032834;28;20119;-75
2022/09/28 01:09:49;;;;;;;7.93;3.00;;;9.10;99.90;;;;;;5034206;28;20474;-75
2022/09/28 01:12:15;;;;;;;6.93;2.20;;;9.10;99.90;;;;;;5033165;28;20080;-75
2022/09/28 01:14:42;;;;;;;5.93;1.65;;;9.10;99.90;;;;;;5033506;28;20479;-75
2022/09/28 01:17:14;;;;;;;6.05;2.22;;;9.10;99.90;;;;;;5034138;28;20108;-76
2022/09/28 01:20:04;;;;;;;6.88;2.70;;;9.10;99.90;;;;;;5034046;28;20068;-75
2022/09/28 01:22:51;;;;;;;9.05;3.13;;;9.20;99.90;;;;;;5033554;28;20045;-76
2022/09/28 01:25:28;;;;;;;10.65;2.53;;;9.20;99.90;;;;;;5033937;28;20021;-75
2022/09/28 01:28:03;;;;;;;7.93;2.22;;;9.30;99.90;;;;;;5033247;28;20498;-75
2022/09/28 01:30:36;;;;;;;6.53;2.58;;;9.30;99.90;;;;;;5031554;28;20068;-75
2022/09/28 01:33:09;;;;;;;8.00;2.17;;;9.40;99.90;;;;;;5033805;28;20037;-76
2022/09/28 01:35:52;;;;;;;6.30;2.03;;;9.40;99.90;;;;;;5033545;28;20471;-76
2022/09/28 01:38:25;;;;;;;8.98;2.17;;;9.50;99.90;;;;;;5033257;28;20061;-76
2022/09/28 01:40:52;;;;;;;5.95;1.80;;;9.50;99.90;;;;;;5024203;28;20052;-75
2022/09/28 01:43:26;;;;;;;3.95;1.77;;;9.50;99.90;;;;;;5026767;28;20029;-75
2022/09/28 01:46:00;;;;;;;5.40;1.60;;;9.50;99.90;;;;;;5040914;28;20035;-75
2022/09/28 01:48:32;;;;;;;5.78;1.95;;;9.60;99.90;;;;;;5038048;28;20044;-76
2022/09/28 01:51:04;;;;;;;3.15;1.70;;;9.60;99.90;;;;;;5037669;28;20099;-75
2022/09/28 01:53:38;;;;;;;3.38;1.23;;;9.60;99.90;;;;;;5022719;28;20029;-75
2022/09/28 01:56:13;;;;;;;4.38;1.70;;;9.50;99.90;;;;;;5033357;28;20068;-75
2022/09/28 01:58:43;;;;;;;3.33;1.45;;;9.60;99.90;;;;;;5033832;28;20032;-75
2022/09/28 02:01:25;;;;;;;7.78;1.98;;;9.50;99.90;;;;;;5033367;28;20029;-75
2022/09/28 02:04:06;;;;;;;5.68;1.70;;;9.60;99.90;;;;;;5033681;28;20033;-75
2022/09/28 02:06:37;;;;;;;3.95;1.63;;;9.50;99.90;;;;;;5033328;28;20064;-75
2022/09/28 02:09:09;;;;;;;9.00;2.20;;;9.60;99.90;;;;;;5017207;28;20398;-75
2022/09/28 02:11:37;;;;;;;5.03;2.13;;;9.60;99.90;;;;;;5033325;28;20068;-76
2022/09/28 02:14:11;;;;;;;9.82;2.35;;;9.60;99.90;;;;;;5033345;28;20037;-76
2022/09/28 02:16:41;;;;;;;10.77;3.65;;;9.70;99.90;;;;;;5032878;28;20032;-76
2022/09/28 02:19:13;;;;;;;9.60;2.45;;;9.70;99.90;;;;;;5033162;28;20041;-76
2022/09/28 02:22:00;;;;;;;4.68;2.17;;;9.80;99.90;;;;;;5033183;28;20029;-76
2022/09/28 02:24:31;;;;;;;4.22;2.10;;;9.80;99.90;;;;;;5033241;28;20034;-75
2022/09/28 02:27:03;;;;;;;7.37;3.57;;;9.80;99.90;;;;;;5032992;28;20352;-76
2022/09/28 02:29:28;;;;;;;4.72;2.00;;;9.90;99.90;;;;;;5032940;28;20365;-76
2022/09/28 02:31:54;;;;;;;5.65;2.22;;;9.90;99.90;;;;;;5032584;28;20045;-75
2022/09/28 02:34:19;;;;;;;8.50;2.50;;;9.90;99.90;;;;;;5032853;28;20032;-76
2022/09/28 02:36:46;;;;;;;7.65;3.60;;;9.90;99.90;;;;;;5013319;28;20030;-75
2022/09/28 02:39:16;;;;;;;5.13;1.65;;;9.80;99.90;;;;;;5031902;28;20034;-76
2022/09/28 02:41:51;;;;;;;5.10;1.48;;;9.80;99.90;;;;;;5032565;28;20033;-76
2022/09/28 02:45:01;;;;;;;7.72;1.67;;;9.80;99.90;;;;;;5032806;28;20030;-75
2022/09/28 02:48:11;;;;;;;7.40;1.50;;;9.80;99.90;;;;;;5032720;28;20022;-75
2022/09/28 02:50:55;;;;;;;5.63;1.50;;;9.70;99.90;;;;;;5031246;28;20522;-75
2022/09/28 02:53:32;;;;;;;3.75;1.55;;;9.70;99.90;;;;;;5032500;28;20040;-75
2022/09/28 02:56:04;;;;;;;5.93;1.40;;;9.70;99.90;;;;;;5032474;28;20068;-76
2022/09/28 02:58:50;;;;;;;5.85;1.33;;;9.70;99.90;;;;;;5032326;28;20017;-75
2022/09/28 03:01:27;;;;;;;5.25;1.20;;;9.60;99.90;;;;;;5032603;28;20079;-76
2022/09/28 03:04:42;;;;;;;4.28;1.10;;;9.60;99.90;;;;;;5031554;28;20575;-75
2022/09/28 03:07:26;;;;;;;6.93;2.40;;;9.60;99.90;;;;;;4945057;28;20454;-76
2022/09/28 03:10:23;;;;;;;6.90;1.02;;;9.60;99.90;;;;;;5032215;28;20057;-75
2022/09/28 03:12:51;;;;;;;3.05;1.42;;;9.70;99.90;;;;;;5017532;28;20068;-76
2022/09/28 03:15:29;;;;;;;6.45;1.48;;;9.70;99.90;;;;;;5032031;28;20916;-76
2022/09/28 03:17:56;;;;;;;6.00;1.30;;;9.70;99.90;;;;;;5032308;28;20083;-76
2022/09/28 03:20:21;;;;;;;7.88;1.50;;;9.80;99.90;;;;;;5032074;28;20034;-76
2022/09/28 03:22:47;;;;;;;5.10;1.30;;;9.80;99.90;;;;;;5030981;28;20033;-76
2022/09/28 03:25:14;;;;;;;1.88;1.02;;;9.70;99.90;;;;;;5031973;28;20100;-75
2022/09/28 03:27:40;;;;;;;2.35;1.15;;;9.80;99.90;;;;;;5031734;28;20036;-76
2022/09/28 03:30:07;;;;;;;3.38;1.23;;;9.70;99.90;;;;;;5031973;28;20481;-75
2022/09/28 03:32:32;;;;;;;3.05;1.00;;;9.70;99.90;;;;;;5046926;28;20045;-75
2022/09/28 03:34:58;;;;;;;2.35;1.00;;;9.70;99.90;;;;;;5031843;28;20025;-75
2022/09/28 03:37:23;;;;;;;5.68;1.45;;;9.70;99.90;;;;;;5031837;28;20029;-75
2022/09/28 03:39:49;;;;;;;6.55;1.25;;;9.70;99.90;;;;;;5031987;28;20029;-76
2022/09/28 03:42:14;;;;;;;7.15;1.70;;;9.70;99.90;;;;;;5031641;28;20075;-75
2022/09/28 03:44:40;;;;;;;5.70;1.67;;;9.60;99.90;;;;;;5030021;28;20029;-75
2022/09/28 03:47:09;;;;;;;6.22;1.40;;;9.60;99.90;;;;;;5031614;28;20079;-76
2022/09/28 03:49:35;;;;;;;24.23;2.35;;;9.70;99.90;;;;;;5031238;28;20029;-75
2022/09/28 03:52:01;;;;;;;89.97;7.57;;;9.70;99.90;;;;;;5031656;28;20047;-76
2022/09/28 03:54:26;;;;;;;4.78;1.83;;;9.70;99.90;;;;;;5031439;28;20043;-76
2022/09/28 03:56:52;;;;;;;4.28;1.38;;;9.80;99.90;;;;;;5031453;28;20033;-75
2022/09/28 03:59:18;;;;;;;4.45;1.20;;;9.80;99.90;;;;;;5031450;28;20109;-75
2022/09/28 04:01:43;;;;;;;9.50;1.48;;;9.90;99.90;;;;;;5010608;28;20033;-74
2022/09/28 04:04:12;;;;;;;3.13;1.10;;;9.90;99.90;;;;;;5011973;28;20052;-75
2022/09/28 04:06:38;;;;;;;3.35;1.27;;;9.90;99.90;;;;;;5012002;28;20037;-75
2022/09/28 04:09:04;;;;;;;5.18;1.83;;;9.90;99.90;;;;;;5011496;28;20030;-77
2022/09/28 04:11:30;;;;;;;4.95;1.13;;;9.80;99.90;;;;;;5011647;28;20476;-76
2022/09/28 04:13:56;;;;;;;5.07;1.45;;;9.80;99.90;;;;;;5011940;28;20026;-75
2022/09/28 04:16:21;;;;;;;9.13;1.58;;;9.80;99.90;;;;;;5018484;28;20037;-76
2022/09/28 04:18:47;;;;;;;4.68;1.60;;;9.80;99.90;;;;;;5038180;28;20033;-76
2022/09/28 04:21:15;;;;;;;11.43;3.30;;;9.80;99.90;;;;;;5037815;28;20072;-76
2022/09/28 04:23:41;;;;;;;9.48;2.00;;;9.70;99.90;;;;;;5037924;28;20030;-76
2022/09/28 04:26:15;;;;;;;8.13;1.70;;;9.70;99.90;;;;;;5038162;28;20040;-76
2022/09/28 04:31:26;;;;;;;7.40;2.35;;;9.70;99.90;;;;;;5037842;28;20049;-77
2022/09/28 04:33:52;;;;;;;7.35;2.08;;;9.60;99.90;;;;;;5038015;28;20079;-75
2022/09/28 04:36:18;;;;;;;7.75;2.15;;;9.60;99.90;;;;;;5037836;28;20029;-75
2022/09/28 04:38:44;;;;;;;8.57;2.30;;;9.50;99.90;;;;;;5037714;28;20043;-76
2022/09/28 04:41:11;;;;;;;7.30;2.42;;;9.40;99.90;;;;;;5037888;28;20038;-76
2022/09/28 04:43:37;;;;;;;9.52;2.30;;;9.40;99.90;;;;;;5037848;28;20032;-76
2022/09/28 04:46:06;;;;;;;4.82;1.90;;;9.40;99.90;;;;;;5037785;28;20179;-77
2022/09/28 04:48:32;;;;;;;4.20;1.40;;;9.30;99.90;;;;;;5037589;28;20116;-76
2022/09/28 04:50:59;;;;;;;11.73;3.63;;;9.20;99.90;;;;;;5037108;28;20116;-76
2022/09/28 04:53:26;;;;;;;20.92;6.80;;;9.20;99.90;;;;;;5037696;28;20033;-77
2022/09/28 04:56:01;;;;;;;18.75;5.07;;;9.20;99.90;;;;;;5037470;28;20018;-76
2022/09/28 04:58:27;;;;;;;13.38;4.85;;;9.20;99.90;;;;;;5037568;28;20176;-77
2022/09/28 05:00:57;;;;;;;13.77;3.55;;;9.20;99.90;;;;;;5037663;28;20033;-76
2022/09/28 05:03:22;;;;;;;18.85;6.03;;;9.30;99.90;;;;;;5037546;28;20030;-76
2022/09/28 05:05:48;;;;;;;9.32;2.97;;;9.30;99.90;;;;;;5037826;28;20216;-76
2022/09/28 05:08:15;;;;;;;8.27;3.38;;;9.30;99.90;;;;;;5037568;28;20025;-76
2022/09/28 05:10:40;;;;;;;6.57;1.90;;;9.30;99.90;;;;;;5039928;28;20115;-76
2022/09/28 05:13:07;;;;;;;9.43;2.42;;;9.20;99.90;;;;;;5050584;28;20430;-77
2022/09/28 05:15:34;;;;;;;12.15;2.60;;;9.20;99.90;;;;;;5058239;28;20455;-77
2022/09/28 05:17:59;;;;;;;8.23;2.50;;;9.30;99.90;;;;;;5058449;28;20021;-75
2022/09/28 05:20:25;;;;;;;10.43;4.07;;;9.30;99.90;;;;;;5058487;28;20059;-76
2022/09/28 05:22:51;;;;;;;11.52;3.63;;;9.30;99.90;;;;;;5058259;28;20090;-76
2022/09/28 05:25:17;;;;;;;9.95;2.92;;;9.30;99.90;;;;;;5049209;28;20029;-77
2022/09/28 05:27:43;;;;;;;10.13;3.67;;;9.30;99.90;;;;;;5034818;28;20028;-77
2022/09/28 05:30:09;;;;;;;8.32;2.95;;;9.30;99.90;;;;;;5035542;28;20026;-77
2022/09/28 05:32:43;;;;;;;14.57;5.45;;;9.20;99.90;;;;;;5053206;28;20086;-77
2022/09/28 05:35:10;;;;;;;7.88;3.22;;;9.20;99.90;;;;;;5054816;28;20550;-77
2022/09/28 05:37:36;;;;;;;6.93;2.55;;;9.20;99.90;;;;;;5049393;28;20034;-77
2022/09/28 05:40:02;;;;;;;7.03;3.03;;;9.20;99.90;;;;;;5035267;28;20021;-76
2022/09/28 05:42:29;;;;;;;11.60;3.45;;;9.20;99.90;;;;;;5046314;28;20029;-76
2022/09/28 05:44:57;;;;;;;9.95;3.33;;;9.20;99.90;;;;;;5037521;28;20030;-77
2022/09/28 05:47:24;;;;;;;9.05;3.58;;;9.20;99.90;;;;;;5034570;28;20470;-77
2022/09/28 05:49:51;;;;;;;7.88;3.15;;;9.20;99.90;;;;;;5034762;28;20094;-76
2022/09/28 05:52:16;;;;;;;8.65;3.53;;;9.20;99.90;;;;;;5034693;28;20038;-76
2022/09/28 05:54:42;;;;;;;9.38;2.50;;;9.10;99.90;;;;;;5034983;28;20022;-76
2022/09/28 05:57:07;;;;;;;9.13;3.65;;;9.10;99.90;;;;;;5035444;28;20025;-76
2022/09/28 05:59:34;;;;;;;16.38;5.88;;;9.20;99.90;;;;;;5035107;28;20034;-76
2022/09/28 06:02:01;;;;;;;14.52;4.03;;;9.20;99.90;;;;;;5035387;28;20026;-76
2022/09/28 06:04:27;;;;;;;16.45;5.22;;;9.20;99.90;;;;;;5036395;28;20515;-76
2022/09/28 06:06:53;;;;;;;14.52;4.80;;;9.20;99.90;;;;;;5036263;28;20075;-77
2022/09/28 06:09:18;;;;;;;11.00;3.72;;;9.20;99.90;;;;;;5034894;28;20029;-76
2022/09/28 06:11:44;;;;;;;6.95;2.50;;;9.20;99.90;;;;;;5034283;28;20509;-76
2022/09/28 06:14:12;;;;;;;6.88;2.30;;;9.20;99.90;;;;;;5034152;28;20458;-77
2022/09/28 06:16:38;;;;;;;7.10;3.15;;;9.20;99.90;;;;;;5033874;28;20197;-76
2022/09/28 06:19:03;;;;;;;9.93;3.17;;;9.20;99.90;;;;;;5034246;28;20188;-76
2022/09/28 06:21:29;;;;;;;8.40;2.90;;;9.30;99.90;;;;;;5034348;28;20026;-76
2022/09/28 06:23:55;;;;;;;8.10;3.47;;;9.30;99.90;;;;;;5034437;28;20352;-76
2022/09/28 06:26:20;;;;;;;24.20;9.98;;;9.30;99.90;;;;;;5034432;28;20029;-77
2022/09/28 06:28:46;;;;;;;20.02;7.28;;;9.30;99.90;;;;;;5033898;28;20022;-77
2022/09/28 06:31:12;;;;;;;21.10;8.68;;;9.40;99.90;;;;;;5034225;28;20065;-77
2022/09/28 06:33:37;;;;;;;18.08;5.82;;;9.40;99.90;;;;;;5034144;28;20471;-76
2022/09/28 06:36:03;;;;;;;21.80;7.80;;;9.40;99.90;;;;;;5034467;28;20048;-77
2022/09/28 06:38:29;;;;;;;18.80;6.93;;;9.40;99.90;;;;;;5034271;28;20025;-77
2022/09/28 06:40:56;;;;;;;19.10;6.85;;;9.40;99.90;;;;;;5034160;28;20075;-77
2022/09/28 06:43:22;;;;;;;13.90;5.40;;;9.40;99.90;;;;;;5034429;28;20072;-77
2022/09/28 06:45:52;;;;;;;15.93;5.03;;;9.40;99.90;;;;;;5038269;28;20026;-76
2022/09/28 06:48:17;;;;;;;17.25;5.45;;;9.40;99.90;;;;;;5034030;28;20037;-77
2022/09/28 06:50:43;;;;;;;10.38;4.38;;;9.40;99.90;;;;;;5033828;28;20026;-76
2022/09/28 06:53:13;;;;;;;14.45;5.20;;;9.40;99.90;;;;;;5032520;28;20033;-77
2022/09/28 06:55:41;;;;;;;14.00;4.90;;;9.40;99.90;;;;;;5033540;28;20026;-77
2022/09/28 06:58:10;;;;;;;19.88;8.40;;;9.40;99.90;;;;;;5033551;28;20034;-76
2022/09/28 07:00:37;;;;;;;31.45;10.20;;;9.40;99.90;;;;;;5046796;28;20079;-77
2022/09/28 07:03:05;;;;;;;23.13;9.55;;;9.50;99.90;;;;;;5052418;28;20025;-78
2022/09/28 07:05:35;;;;;;;23.73;7.10;;;9.50;99.90;;;;;;5053149;28;20017;-77
2022/09/28 07:08:02;;;;;;;21.27;7.45;;;9.50;99.90;;;;;;5038429;28;20029;-77
2022/09/28 07:10:29;;;;;;;15.40;4.43;;;9.60;99.90;;;;;;5032685;28;20061;-77
2022/09/28 07:12:56;;;;;;;12.27;3.00;;;9.60;99.90;;;;;;5047782;28;20151;-77
2022/09/28 07:15:23;;;;;;;10.90;3.40;;;9.60;99.90;;;;;;5053496;28;20037;-77
2022/09/28 07:17:49;;;;;;;13.25;4.45;;;9.70;99.90;;;;;;5053373;28;20102;-77
2022/09/28 07:20:15;;;;;;;11.32;3.90;;;9.80;99.90;;;;;;5053462;28;20060;-76
2022/09/28 07:22:43;;;;;;;14.07;4.68;;;9.80;99.90;;;;;;5052870;28;20024;-77
2022/09/28 07:25:09;;;;;;;13.32;4.03;;;9.90;99.90;;;;;;5036541;28;20029;-77
2022/09/28 07:27:38;;;;;;;11.50;3.17;;;10.00;99.90;;;;;;5033189;28;20036;-77
2022/09/28 07:30:05;;;;;;;17.60;4.75;;;10.20;99.90;;;;;;5032100;28;20605;-76
2022/09/28 07:32:33;;;;;;;12.55;4.75;;;10.30;99.90;;;;;;5033191;28;20049;-77
2022/09/28 07:35:03;;;;;;;9.85;3.25;;;10.40;99.90;;;;;;5033165;28;20022;-76
2022/09/28 07:37:30;;;;;;;8.23;2.50;;;10.60;99.90;;;;;;5033083;28;20020;-76
2022/09/28 07:42:39;;;;;;;7.50;2.50;;;10.80;99.90;;;;;;5032727;28;20087;-76
2022/09/28 07:45:05;;;;;;;7.07;2.45;;;11.00;99.90;;;;;;5031913;28;20029;-76
2022/09/28 07:47:31;;;;;;;8.50;2.47;;;11.20;99.90;;;;;;5033770;28;20462;-76
2022/09/28 07:49:56;;;;;;;6.07;2.00;;;11.50;99.90;;;;;;5032676;28;20052;-76
2022/09/28 07:52:24;;;;;;;4.35;1.63;;;11.80;99.90;;;;;;5032725;28;20030;-76
2022/09/28 07:54:53;;;;;;;4.75;1.50;;;12.30;99.90;;;;;;5032886;28;20025;-76
2022/09/28 07:57:21;;;;;;;3.58;1.17;;;12.90;99.90;;;;;;5033154;28;20018;-76
2022/09/28 07:59:48;;;;;;;7.10;2.50;;;13.70;99.90;;;;;;5013144;28;20034;-76
2022/09/28 08:02:15;;;;;;;4.60;1.20;;;14.70;99.90;;;;;;5013141;28;20076;-77
2022/09/28 08:04:40;;;;;;;5.05;1.15;;;15.50;99.90;;;;;;5013468;28;20025;-76
2022/09/28 08:07:10;;;;;;;3.92;1.27;;;16.40;99.90;;;;;;5025899;28;20431;-76
2022/09/28 08:09:36;;;;;;;2.00;1.00;;;17.30;99.90;;;;;;5016139;28;20033;-76
2022/09/28 08:12:04;;;;;;;4.07;1.20;;;18.30;99.90;;;;;;5026816;28;20053;-76
2022/09/28 08:14:34;;;;;;;5.80;1.30;;;19.20;99.90;;;;;;5047870;28;20029;-75
2022/09/28 08:17:00;;;;;;;4.60;1.55;;;20.10;99.90;;;;;;5038449;28;20024;-76
2022/09/28 08:21:43;;;;;;;10.57;1.20;;;20.90;99.90;;;;;;5052247;28;20036;-77
2022/09/28 08:22:13;;;;;;;4.18;0.93;;;21.60;99.90;;;;;;5045787;28;20036;-76
2022/09/28 08:24:38;;;;;;;2.72;0.88;;;22.40;99.90;;;;;;5040500;28;20056;-76
2022/09/28 08:27:04;;;;;;;3.92;0.80;;;22.60;99.90;;;;;;5041248;28;20542;-76
2022/09/28 08:29:30;;;;;;;3.45;0.80;;;23.00;99.90;;;;;;5036500;28;20224;-76
2022/09/28 08:31:58;;;;;;;6.57;0.88;;;23.40;98.80;;;;;;5037527;28;20045;-77
2022/09/28 08:34:26;;;;;;;4.32;1.00;;;23.90;97.50;;;;;;5032935;28;20021;-76
2022/09/28 08:36:55;;;;;;;3.40;1.10;;;24.50;96.80;;;;;;5035180;28;20056;-76
2022/09/28 08:39:22;;;;;;;3.17;1.02;;;25.10;94.90;;;;;;5035557;28;20025;-76
2022/09/28 08:42:31;;;;;;;3.15;0.68;;;25.30;92.70;;;;;;5036545;28;20022;-76
2022/09/28 08:45:06;;;;;;;4.50;1.48;;;25.40;91.80;;;;;;4999002;28;20052;-76
2022/09/28 08:50:31;;;;;;;3.90;1.65;;;25.60;91.40;;;;;;5037733;28;20028;-77
2022/09/28 08:53:26;;;;;;;2.97;1.17;;;26.00;91.10;;;;;;5038116;28;20155;-76
2022/09/28 08:55:52;;;;;;;4.07;2.17;;;26.10;90.70;;;;;;5003408;28;20044;-76
2022/09/28 08:58:24;;;;;;;4.28;1.60;;;25.00;89.90;;;;;;5041197;28;20033;-76
2022/09/28 09:00:51;;;;;;;5.13;2.00;;;23.50;91.30;;;;;;5039343;28;20075;-76
2022/09/28 09:03:31;;;;;;;2.40;0.98;;;22.20;92.70;;;;;;5041106;28;20467;-76
2022/09/28 09:06:07;;;;;;;3.15;0.90;;;21.30;94.80;;;;;;5042961;28;20064;-76
2022/09/28 09:09:10;;;;;;;4.93;2.35;;;21.40;97.70;;;;;;5040694;28;20467;-76
2022/09/28 09:11:57;;;;;;;2.03;0.70;;;22.40;95.40;;;;;;5039665;28;20045;-76
2022/09/28 09:14:55;;;;;;;3.33;1.42;;;23.70;93.00;;;;;;5043882;28;20132;-76
2022/09/28 09:17:20;;;;;;;4.68;0.95;;;24.50;92.60;;;;;;5042908;28;20036;-75
2022/09/28 09:20:07;;;;;;;2.47;0.90;;;25.30;89.50;;;;;;5039971;28;20037;-75
2022/09/28 09:22:58;;;;;;;1.98;0.80;;;25.60;91.80;;;;;;5035515;28;20040;-75
2022/09/28 09:25:39;;;;;;;2.25;0.93;;;26.20;92.00;;;;;;5044252;28;20497;-76
2022/09/28 09:28:26;;;;;;;3.35;1.10;;;26.50;91.20;;;;;;5043714;28;20033;-76
2022/09/28 09:31:20;;;;;;;0.95;0.32;;;26.10;89.20;;;;;;5040596;28;20033;-77
2022/09/28 09:34:14;;;;;;;4.28;1.33;;;24.80;87.50;;;;;;5042913;28;20395;-76
2022/09/28 09:37:20;;;;;;;3.85;0.98;;;23.30;91.70;;;;;;5042257;28;20414;-75
2022/09/28 09:40:17;;;;;;;5.10;1.05;;;22.20;93.40;;;;;;5043948;28;20037;-76
2022/09/28 09:43:16;;;;;;;2.67;0.90;;;21.50;94.50;;;;;;5041590;28;20029;-76
2022/09/28 09:46:02;;;;;;;3.80;0.68;;;21.00;95.20;;;;;;5038244;28;20039;-76
2022/09/28 09:48:50;;;;;;;1.65;0.52;;;20.70;96.20;;;;;;5043925;28;20078;-76
2022/09/28 09:51:28;;;;;;;2.35;0.55;;;20.80;95.60;;;;;;5038157;28;20037;-76
2022/09/28 09:54:02;;;;;;;2.28;0.75;;;21.60;94.50;;;;;;5040336;28;20076;-76
2022/09/28 09:56:37;;;;;;;4.18;1.10;;;22.50;95.10;;;;;;5043509;28;20540;-75
2022/09/28 09:59:16;;;;;;;1.98;0.60;;;23.60;94.10;;;;;;5044356;28;20035;-75
2022/09/28 10:01:42;;;;;;;4.90;1.60;;;24.80;92.90;;;;;;5040274;28;20037;-76
2022/09/28 10:04:20;;;;;;;6.50;1.95;;;25.70;91.00;;;;;;5036131;28;20036;-76
2022/09/28 10:06:47;;;;;;;2.78;0.80;;;26.70;90.20;;;;;;5041268;28;20425;-76
2022/09/28 10:09:21;;;;;;;4.95;1.95;;;27.30;86.40;;;;;;5042833;28;20095;-76
2022/09/28 10:11:50;;;;;;;2.90;1.52;;;27.80;85.40;;;;;;5040526;28;20064;-76
2022/09/28 10:14:21;;;;;;;3.20;0.68;;;27.80;82.90;;;;;;5042244;28;20032;-76
2022/09/28 10:16:49;;;;;;;9.03;4.27;;;28.20;81.70;;;;;;5041450;28;20033;-76
2022/09/28 10:19:16;;;;;;;8.00;3.22;;;28.80;83.20;;;;;;5040393;28;20474;-75
2022/09/28 10:21:44;;;;;;;8.43;2.10;;;29.40;81.20;;;;;;5043340;28;20071;-76
2022/09/28 10:24:28;;;;;;;3.67;1.35;;;29.90;79.20;;;;;;5043318;28;20025;-75
2022/09/28 10:26:54;;;;;;;6.22;2.63;;;30.40;78.20;;;;;;5038454;28;20056;-76
2022/09/28 10:29:24;;;;;;;2.65;1.40;;;30.80;77.70;;;;;;5042800;28;20111;-75
2022/09/28 10:31:51;;;;;;;7.68;2.65;;;30.80;75.70;;;;;;5043937;28;20090;-75
2022/09/28 10:34:23;;;;;;;1.02;0.30;;;29.90;79.40;;;;;;5039721;28;20029;-76
2022/09/28 10:36:58;;;;;;;0.55;0.32;;;29.00;80.10;;;;;;5035899;28;20036;-76
2022/09/28 10:39:49;;;;;;;5.78;3.33;;;27.40;81.30;;;;;;5040847;28;20517;-75
2022/09/28 10:42:22;;;;;;;12.23;4.50;;;25.40;86.10;;;;;;5039980;28;20030;-76
2022/09/28 10:45:12;;;;;;;8.52;3.00;;;23.80;90.10;;;;;;5034767;28;20029;-76
2022/09/28 10:47:43;;;;;;;6.90;2.78;;;22.60;91.40;;;;;;5042827;28;20039;-77
2022/09/28 10:50:24;;;;;;;2.63;0.95;;;21.70;92.30;;;;;;5038961;28;20051;-76
2022/09/28 10:52:50;;;;;;;12.80;3.23;;;21.00;93.50;;;;;;5040649;28;20036;-75
2022/09/28 10:55:32;;;;;;;7.70;3.10;;;21.20;95.80;;;;;;5041082;28;20036;-77
2022/09/28 10:58:16;;;;;;;;;;;22.60;93.40;;;;;;5039524;28;20785;-76
2022/09/28 11:00:43;;;;;;;6.13;1.70;;;24.00;90.80;;;;;;5039807;28;19905;-77
2022/09/28 11:03:22;;;;;;;2.90;1.13;;;24.40;88.00;;;;;;5039780;28;20151;-77
2022/09/28 11:05:55;;;;;;;6.97;2.20;;;24.10;87.30;;;;;;5034908;28;20029;-76
2022/09/28 11:08:30;;;;;;;1.00;0.65;;;24.00;89.00;;;;;;5038016;28;20360;-77
2022/09/28 11:11:08;;;;;;;3.00;1.00;;;24.30;87.30;;;;;;5041481;28;20452;-76
2022/09/28 11:13:42;;;;;;;2.95;1.13;;;25.20;85.70;;;;;;5038783;28;20033;-76
2022/09/28 11:16:38;;;;;;;2.35;1.30;;;26.00;84.30;;;;;;5033347;28;20029;-76
2022/09/28 11:19:25;;;;;;;2.92;1.20;;;26.50;83.00;;;;;;5033669;28;20597;-76
2022/09/28 11:21:51;;;;;;;2.22;1.30;;;26.80;82.10;;;;;;5032666;28;20072;-77
2022/09/28 11:24:18;;;;;;;7.20;2.55;;;27.40;82.60;;;;;;5032279;28;20056;-76
2022/09/28 11:26:47;;;;;;;2.00;1.20;;;27.90;80.10;;;;;;5032818;28;20676;-76
2022/09/28 11:29:40;;;;;;;1.63;0.77;;;28.40;78.90;;;;;;5032732;28;20022;-76
2022/09/28 11:32:08;;;;;;;2.30;1.17;;;28.70;77.50;;;;;;5033097;28;20044;-76
2022/09/28 11:34:42;;;;;;;4.40;1.10;;;29.00;77.20;;;;;;5032540;28;20032;-76
2022/09/28 11:37:44;;;;;;;2.95;1.20;;;28.90;77.40;;;;;;5022606;28;20028;-76
2022/09/28 11:40:34;;;;;;;2.10;0.93;;;28.70;77.90;;;;;;5030849;28;20033;-76
2022/09/28 11:43:12;;;;;;;1.17;0.80;;;28.60;76.70;;;;;;5032787;28;20040;-76
2022/09/28 11:46:01;;;;;;;1.10;0.40;;;28.30;76.40;;;;;;5030697;28;20021;-76
2022/09/28 11:48:38;;;;;;;2.83;0.80;;;28.10;77.70;;;;;;5016840;28;20096;-75
2022/09/28 11:51:10;;;;;;;0.45;0.32;;;28.00;76.50;;;;;;5031993;28;20478;-76
2022/09/28 11:53:44;;;;;;;;;;;27.90;75.40;;;;;;5031336;28;20114;-76
2022/09/28 11:56:31;;;;;;;0.50;0.40;;;27.80;75.90;;;;;;5032172;28;19909;-76
2022/09/28 11:59:04;;;;;;;0.82;0.40;;;27.80;75.70;;;;;;5031444;28;20474;-76
2022/09/28 12:01:45;;;;;;;1.45;0.90;;;27.90;76.00;;;;;;5031949;28;20478;-76
2022/09/28 12:04:35;;;;;;;2.42;0.80;;;28.00;76.20;;;;;;5031822;28;20044;-76
2022/09/28 12:07:11;;;;;;;4.82;1.30;;;27.90;75.20;;;;;;5031918;28;20059;-75
2022/09/28 12:09:42;;;;;;;1.80;1.00;;;27.60;76.90;;;;;;5031904;28;20029;-75
2022/09/28 12:12:26;;;;;;;1.30;0.50;;;27.30;77.70;;;;;;5032427;28;20057;-75
2022/09/28 12:14:57;;;;;;;0.73;0.50;;;27.10;76.80;;;;;;5032245;28;20475;-76
2022/09/28 12:17:35;;;;;;;3.13;0.63;;;27.10;78.20;;;;;;5030816;28;20026;-75
2022/09/28 12:20:39;;;;;;;1.85;0.40;;;27.40;77.30;;;;;;5032742;28;20526;-76
2022/09/28 12:23:16;;;;;;;1.20;0.50;;;27.60;76.30;;;;;;5008127;28;20388;-76
2022/09/28 12:25:48;;;;;;;2.10;0.30;;;27.60;76.00;;;;;;5032388;28;20033;-76
2022/09/28 12:28:35;;;;;;;1.08;0.40;;;27.40;77.50;;;;;;5032492;28;20029;-76
2022/09/28 12:31:27;;;;;;;1.75;0.50;;;27.30;77.60;;;;;;5030976;28;20124;-75
2022/09/28 12:33:52;;;;;;;;;;;26.90;77.40;;;;;;5030015;28;20044;-74
2022/09/28 12:36:31;;;;;;;2.28;0.65;;;26.30;77.90;;;;;;5043711;28;19909;-75
2022/09/28 12:39:03;;;;;;;0.20;0.20;;;25.80;78.30;;;;;;5035934;28;20025;-74
2022/09/28 12:42:27;;;;;;;3.28;0.93;;;25.60;80.50;;;;;;5035926;28;20418;-75
2022/09/28 12:45:19;;;;;;;1.05;0.82;;;25.40;82.00;;;;;;5004141;28;20109;-74
2022/09/28 12:47:56;;;;;;;0.43;0.32;;;25.10;82.40;;;;;;5011625;28;20057;-74
2022/09/28 12:50:36;;;;;;;1.92;0.77;;;25.00;81.80;;;;;;5024845;28;20513;-74
2022/09/28 12:53:12;;;;;;;1.55;0.38;;;25.10;84.60;;;;;;5035744;28;20091;-74
2022/09/28 12:55:55;;;;;;;2.70;1.08;;;25.00;84.60;;;;;;5035739;28;20030;-74
2022/09/28 12:58:36;;;;;;;2.30;0.40;;;24.90;86.00;;;;;;5019492;28;20060;-74
2022/09/28 13:01:12;;;;;;;1.05;0.40;;;24.80;83.10;;;;;;5035254;28;20034;-74
2022/09/28 13:04:16;;;;;;;0.38;0.30;;;24.60;84.70;;;;;;5035621;28;20022;-74
2022/09/28 13:06:52;;;;;;;0.75;0.25;;;24.50;84.40;;;;;;5033861;28;20029;-74
2022/09/28 13:09:33;;;;;;;3.15;0.47;;;24.30;85.20;;;;;;5035299;28;20037;-74
2022/09/28 13:12:16;;;;;;;2.45;0.40;;;23.80;85.90;;;;;;5034815;28;20096;-74
2022/09/28 13:15:03;;;;;;;8.77;3.67;;;23.10;87.10;;;;;;5035292;28;20034;-75
2022/09/28 13:17:38;;;;;;;6.53;2.83;;;22.30;89.80;;;;;;5032386;28;20033;-75
2022/09/28 13:20:36;;;;;;;3.88;1.30;;;21.40;90.90;;;;;;5033169;28;20032;-75
2022/09/28 13:23:38;;;;;;;4.90;1.70;;;20.60;92.00;;;;;;5026724;28;20029;-74
2022/09/28 13:26:18;;;;;;;2.20;1.35;;;19.90;93.70;;;;;;5020115;28;20049;-75
2022/09/28 13:28:45;;;;;;;3.40;1.20;;;19.40;95.00;;;;;;5033593;28;20513;-75
2022/09/28 13:31:16;;;;;;;6.95;1.42;;;18.90;95.70;;;;;;5034269;28;20041;-74